Time;durP1;ratioP1;P1;durP2;ratioP2;P2;SDS_P1;SDS_P2;PMS_P1;PMS_P2;Temp;Humidity;BMP_temperature;BMP_pressure;BME280_temperature;BME280_humidity;BME280_pressure;Samples;Min_cycle;Max_cycle;Signal;HPM_P1;HPM_P2
2022/03/29 00:00:52;;;;;;;;;;;10.30;65.10;;;;;;2378080;56;20077;-76
2022/03/29 00:03:18;;;;;;;;;;;10.30;65.20;;;;;;2377543;54;20093;-76
2022/03/29 00:05:45;;;;;;;;;;;10.30;65.20;;;;;;2378989;56;20093;-76
2022/03/29 00:08:11;;;;;;;;;;;10.30;64.80;;;;;;2385614;52;20110;-76
2022/03/29 00:10:38;;;;;;;;;;;10.30;64.90;;;;;;2378566;56;20073;-76
2022/03/29 00:13:04;;;;;;;;;;;10.30;65.10;;;;;;2378910;56;20352;-75
2022/03/29 00:15:31;;;;;;;;;;;10.30;65.00;;;;;;2425134;52;20136;-76
2022/03/29 00:17:58;;;;;;;;;;;10.30;65.10;;;;;;2378917;56;20074;-75
2022/03/29 00:20:24;;;;;;;;;;;10.30;65.00;;;;;;2378632;56;20121;-76
2022/03/29 00:22:51;;;;;;;;;;;10.30;64.90;;;;;;2378999;56;20070;-76
2022/03/29 00:25:18;;;;;;;;;;;10.30;65.10;;;;;;2378407;56;20776;-75
2022/03/29 00:27:44;;;;;;;;;;;10.30;65.00;;;;;;2377867;56;20122;-76
2022/03/29 00:30:12;;;;;;;;;;;10.30;64.90;;;;;;2441670;52;20249;-75
2022/03/29 00:32:39;;;;;;;;;;;10.30;65.00;;;;;;2378894;56;20315;-76
2022/03/29 00:35:06;;;;;;;;;;;10.20;64.90;;;;;;2379053;56;20125;-76
2022/03/29 00:37:33;;;;;;;;;;;10.20;65.20;;;;;;2494296;52;20320;-76
2022/03/29 00:39:59;;;;;;;;;;;10.20;64.90;;;;;;2385447;52;20288;-76
2022/03/29 00:42:26;;;;;;;;;;;10.20;64.90;;;;;;2378796;56;20114;-76
2022/03/29 00:44:53;;;;;;;;;;;10.20;65.10;;;;;;2378512;56;20049;-76
2022/03/29 00:47:19;;;;;;;;;;;10.20;64.80;;;;;;2379216;56;20132;-75
2022/03/29 00:49:45;;;;;;;;;;;10.30;65.00;;;;;;2379150;56;20078;-76
2022/03/29 00:52:12;;;;;;;;;;;10.30;64.80;;;;;;2505156;52;20067;-75
2022/03/29 00:54:40;;;;;;;;;;;10.30;64.50;;;;;;2378765;56;20070;-76
2022/03/29 00:57:07;;;;;;;;;;;10.40;64.50;;;;;;2379545;56;20105;-76
2022/03/29 00:59:34;;;;;;;;;;;10.30;65.20;;;;;;2378669;56;20069;-76
2022/03/29 01:02:01;;;;;;;;;;;10.30;64.30;;;;;;2412808;52;20073;-76
2022/03/29 01:04:27;;;;;;;;;;;10.40;64.20;;;;;;2379240;56;20110;-75
2022/03/29 01:06:57;;;;;;;;;;;10.30;64.10;;;;;;2379290;56;20065;-76
2022/03/29 01:09:24;;;;;;;;;;;10.30;64.20;;;;;;2378810;56;20121;-76
2022/03/29 01:11:50;;;;;;;;;;;10.30;64.20;;;;;;2379323;56;20138;-76
2022/03/29 01:14:17;;;;;;;;;;;10.30;64.00;;;;;;2379178;56;20130;-76
2022/03/29 01:36:51;;;;;;;36.00;16.73;;;9.50;64.20;;;;;;2535747;54;27061;-76
2022/03/29 01:39:18;;;;;;;36.13;17.75;;;10.00;65.50;;;;;;2292026;58;21214;-79
2022/03/29 01:41:47;;;;;;;32.72;15.18;;;10.00;65.60;;;;;;2285193;55;65476;-77
2022/03/29 01:44:14;;;;;;;28.62;13.55;;;10.00;64.50;;;;;;2507628;54;22152;-75
2022/03/29 01:46:41;;;;;;;31.67;14.75;;;10.00;64.20;;;;;;2506999;55;21135;-78
2022/03/29 01:49:10;;;;;;;27.73;14.70;;;10.00;63.80;;;;;;2276113;59;21151;-78
2022/03/29 01:51:37;;;;;;;29.25;14.30;;;9.90;63.70;;;;;;2516297;54;21069;-78
2022/03/29 01:54:04;;;;;;;29.42;14.77;;;9.90;63.60;;;;;;2539285;54;21104;-78
2022/03/29 01:56:34;;;;;;;34.97;15.68;;;9.90;63.50;;;;;;2301858;58;21061;-77
2022/03/29 02:01:41;;;;;;;32.30;15.10;;;9.90;63.60;;;;;;2355014;57;22070;-75
2022/03/29 02:04:09;;;;;;;34.35;14.95;;;10.00;63.60;;;;;;2347740;57;21045;-75
2022/03/29 02:06:36;;;;;;;31.08;14.20;;;10.00;63.50;;;;;;2345554;57;21046;-75
2022/03/29 02:09:06;;;;;;;28.98;13.27;;;10.10;63.70;;;;;;2346556;57;21117;-73
2022/03/29 02:11:34;;;;;;;33.22;14.27;;;10.00;63.50;;;;;;2346255;57;21046;-74
2022/03/29 02:14:01;;;;;;;32.30;15.60;;;10.00;63.30;;;;;;2346231;57;21026;-74
2022/03/29 02:16:29;;;;;;;32.70;15.73;;;10.00;63.50;;;;;;2344999;57;21041;-75
2022/03/29 02:18:56;;;;;;;38.22;18.05;;;10.00;63.70;;;;;;2346178;57;21046;-77
2022/03/29 02:21:23;;;;;;;30.50;15.43;;;9.90;63.90;;;;;;2345600;57;21281;-75
2022/03/29 02:23:51;;;;;;;37.40;17.75;;;9.90;64.00;;;;;;2346325;57;21189;-74
2022/03/29 02:26:18;;;;;;;32.80;14.82;;;9.90;64.00;;;;;;2345751;57;21101;-75
2022/03/29 02:28:46;;;;;;;29.30;15.02;;;9.80;64.00;;;;;;2346223;57;21544;-75
2022/03/29 02:31:13;;;;;;;38.30;16.55;;;9.80;64.20;;;;;;2345813;57;21393;-75
2022/03/29 02:33:40;;;;;;;38.97;17.05;;;9.80;63.80;;;;;;2592739;53;21041;-75
2022/03/29 02:36:09;;;;;;;36.60;14.38;;;9.70;63.90;;;;;;2345781;57;21714;-74
2022/03/29 02:38:37;;;;;;;35.53;14.75;;;9.70;64.00;;;;;;2346005;57;21038;-75
2022/03/29 02:41:04;;;;;;;41.25;17.65;;;9.70;64.00;;;;;;2346100;57;21050;-75
2022/03/29 02:43:32;;;;;;;31.52;12.80;;;9.70;63.90;;;;;;2345893;57;21058;-73
2022/03/29 02:45:59;;;;;;;25.20;12.73;;;9.60;63.80;;;;;;2346052;57;21030;-75
2022/03/29 02:51:03;;;;;;;30.10;14.00;;;9.50;63.80;;;;;;2356028;57;22066;-75
2022/03/29 02:53:30;;;;;;;30.55;12.65;;;9.50;63.80;;;;;;2347716;57;21168;-76
2022/03/29 02:55:57;;;;;;;32.78;10.70;;;9.40;64.00;;;;;;2346297;57;21050;-74
2022/03/29 02:58:25;;;;;;;33.75;10.93;;;9.30;63.90;;;;;;2593474;52;21094;-73
2022/03/29 03:00:52;;;;;;;23.12;10.45;;;9.20;64.10;;;;;;2346105;57;21045;-76
2022/03/29 03:03:19;;;;;;;28.05;10.63;;;9.20;64.10;;;;;;2346033;57;21034;-75
2022/03/29 03:05:47;;;;;;;27.50;10.95;;;9.10;64.30;;;;;;2345868;57;21117;-75
2022/03/29 03:08:14;;;;;;;26.48;10.77;;;9.10;64.30;;;;;;2345164;57;21173;-75
2022/03/29 03:10:41;;;;;;;25.08;11.27;;;9.10;64.40;;;;;;2346044;57;21058;-74
2022/03/29 03:13:11;;;;;;;22.08;10.23;;;9.10;64.60;;;;;;2345827;57;21042;-75
2022/03/29 03:15:38;;;;;;;20.80;9.52;;;9.00;64.90;;;;;;2345739;57;21109;-75
2022/03/29 03:18:05;;;;;;;24.58;8.75;;;9.10;64.80;;;;;;2345459;57;21125;-76
2022/03/29 03:20:33;;;;;;;26.60;9.65;;;9.00;64.80;;;;;;2345747;57;21034;-76
2022/03/29 03:23:01;;;;;;;27.52;9.30;;;8.90;65.00;;;;;;2345083;57;21133;-76
2022/03/29 03:25:28;;;;;;;21.40;8.63;;;8.80;64.80;;;;;;2592012;53;21054;-75
2022/03/29 03:27:55;;;;;;;26.08;8.00;;;8.80;64.80;;;;;;2345791;57;21498;-75
2022/03/29 03:30:23;;;;;;;31.27;8.98;;;8.70;65.20;;;;;;2345826;57;21615;-74
2022/03/29 03:32:53;;;;;;;26.65;8.50;;;8.70;65.40;;;;;;2345649;57;21085;-76
2022/03/29 03:35:21;;;;;;;27.23;8.13;;;8.60;65.50;;;;;;2345580;57;21046;-76
2022/03/29 03:37:49;;;;;;;25.75;8.07;;;8.60;65.50;;;;;;2344784;57;21026;-76
2022/03/29 03:40:17;;;;;;;30.33;8.18;;;8.60;65.40;;;;;;2345827;57;21105;-75
2022/03/29 03:42:44;;;;;;;35.38;8.52;;;8.60;65.30;;;;;;2345688;57;21126;-75
2022/03/29 03:45:12;;;;;;;26.90;9.18;;;8.60;65.20;;;;;;2345796;57;21701;-73
2022/03/29 03:47:39;;;;;;;27.00;7.60;;;8.60;65.10;;;;;;2345856;57;21532;-75
2022/03/29 03:50:08;;;;;;;35.25;7.93;;;8.60;65.10;;;;;;2345686;57;21128;-76
2022/03/29 03:52:36;;;;;;;30.25;7.90;;;8.60;65.20;;;;;;2345613;57;21037;-75
2022/03/29 03:55:05;;;;;;;31.48;8.57;;;8.60;65.50;;;;;;2345523;57;21121;-76
2022/03/29 03:57:32;;;;;;;26.00;8.18;;;8.60;65.40;;;;;;2345794;57;21121;-75
2022/03/29 04:00:01;;;;;;;26.37;7.75;;;8.50;65.30;;;;;;2592857;53;21042;-75
2022/03/29 04:02:28;;;;;;;31.95;7.37;;;8.60;65.50;;;;;;2344906;57;21095;-76
2022/03/29 04:04:55;;;;;;;27.30;7.40;;;8.60;65.50;;;;;;2344868;57;21054;-76
2022/03/29 04:07:23;;;;;;;25.83;5.70;;;8.50;66.20;;;;;;2591666;53;21116;-75
2022/03/29 04:09:50;;;;;;;28.12;6.43;;;8.50;65.60;;;;;;2344169;57;21050;-76
2022/03/29 04:12:17;;;;;;;27.52;5.50;;;8.50;65.40;;;;;;2345081;57;21169;-74
2022/03/29 04:14:44;;;;;;;33.58;6.80;;;8.50;65.50;;;;;;2344328;57;21030;-76
2022/03/29 04:17:12;;;;;;;27.45;6.00;;;8.50;65.40;;;;;;2344749;57;21050;-75
2022/03/29 04:19:39;;;;;;;32.63;6.57;;;8.40;65.50;;;;;;2344524;57;21615;-75
2022/03/29 04:22:07;;;;;;;28.85;6.82;;;8.40;65.50;;;;;;2344510;57;21832;-76
2022/03/29 04:24:34;;;;;;;28.15;7.15;;;8.40;65.40;;;;;;2343720;57;21895;-75
2022/03/29 04:27:01;;;;;;;30.23;5.60;;;8.40;65.40;;;;;;2342415;57;21125;-77
2022/03/29 04:29:29;;;;;;;23.73;6.12;;;8.30;65.30;;;;;;2344903;57;21098;-76
2022/03/29 04:31:56;;;;;;;23.98;6.45;;;8.30;65.30;;;;;;2344842;57;21102;-76
2022/03/29 04:34:25;;;;;;;27.35;6.80;;;8.30;65.50;;;;;;2345215;57;21126;-76
2022/03/29 04:36:52;;;;;;;27.13;7.10;;;8.30;65.30;;;;;;2344933;57;21041;-75
2022/03/29 04:39:19;;;;;;;20.70;5.80;;;8.30;65.30;;;;;;2345383;57;21049;-76
2022/03/29 04:41:46;;;;;;;25.70;7.12;;;8.30;65.10;;;;;;2345091;57;21483;-76
2022/03/29 04:44:14;;;;;;;26.45;6.00;;;8.30;65.10;;;;;;2344220;57;21054;-76
2022/03/29 04:46:41;;;;;;;31.58;6.35;;;8.20;65.20;;;;;;2343103;57;21659;-75
2022/03/29 04:49:08;;;;;;;19.62;6.43;;;8.20;65.20;;;;;;2343174;57;21103;-75
2022/03/29 04:51:36;;;;;;;33.10;6.85;;;8.10;65.40;;;;;;2344337;57;21096;-75
2022/03/29 04:54:03;;;;;;;23.83;5.57;;;8.10;65.70;;;;;;2344233;57;21015;-76
2022/03/29 04:56:30;;;;;;;24.48;6.50;;;8.10;65.90;;;;;;2344660;57;21054;-75
2022/03/29 04:58:58;;;;;;;31.45;6.95;;;8.00;66.10;;;;;;2345141;57;22160;-76
2022/03/29 05:01:25;;;;;;;32.47;5.72;;;8.00;66.10;;;;;;2345009;57;21112;-75
2022/03/29 05:03:52;;;;;;;25.10;5.45;;;8.00;66.20;;;;;;2345012;57;21092;-73
2022/03/29 05:06:19;;;;;;;25.48;5.60;;;7.90;66.50;;;;;;2344614;57;21126;-76
2022/03/29 05:08:47;;;;;;;22.30;5.03;;;7.90;66.60;;;;;;2344969;57;21049;-75
2022/03/29 05:11:14;;;;;;;36.65;7.43;;;7.90;66.60;;;;;;2344723;57;21110;-76
2022/03/29 05:13:41;;;;;;;36.75;7.15;;;7.80;66.70;;;;;;2344851;57;21038;-74
2022/03/29 05:16:08;;;;;;;29.45;6.20;;;7.70;66.90;;;;;;2344617;57;21030;-75
2022/03/29 05:18:36;;;;;;;32.03;7.25;;;7.70;67.70;;;;;;2345124;57;21062;-75
2022/03/29 05:21:03;;;;;;;37.75;6.40;;;7.70;67.30;;;;;;2344687;57;21054;-75
2022/03/29 05:23:31;;;;;;;32.78;7.03;;;7.70;67.50;;;;;;2344961;57;21105;-74
2022/03/29 05:25:58;;;;;;;26.50;5.15;;;7.70;67.50;;;;;;2343239;57;21120;-74
2022/03/29 05:28:25;;;;;;;29.35;5.70;;;7.70;67.10;;;;;;2345158;57;21551;-75
2022/03/29 05:30:53;;;;;;;18.12;4.68;;;7.60;66.90;;;;;;2344922;57;21050;-75
2022/03/29 05:33:20;;;;;;;20.80;4.78;;;7.60;67.30;;;;;;2344864;57;21034;-75
2022/03/29 05:35:47;;;;;;;26.05;5.72;;;7.60;67.30;;;;;;2344504;57;21053;-75
2022/03/29 05:38:14;;;;;;;27.60;7.75;;;7.60;67.30;;;;;;2344812;57;21067;-75
2022/03/29 05:40:42;;;;;;;21.33;4.50;;;7.60;67.10;;;;;;2591665;53;21069;-76
2022/03/29 05:43:12;;;;;;;29.05;5.35;;;7.60;67.40;;;;;;2345129;57;21105;-75
2022/03/29 05:45:40;;;;;;;21.50;4.75;;;7.60;67.40;;;;;;2591743;53;21038;-75
2022/03/29 05:50:54;;;;;;;23.33;4.75;;;7.50;67.70;;;;;;2345059;57;20998;-75
2022/03/29 05:53:23;;;;;;;23.95;5.10;;;7.50;67.60;;;;;;2345344;57;21050;-75
2022/03/29 05:55:51;;;;;;;29.75;5.30;;;7.50;67.70;;;;;;2591682;53;21116;-75
2022/03/29 05:58:18;;;;;;;22.83;4.62;;;7.50;67.70;;;;;;2344751;57;21113;-75
2022/03/29 06:00:46;;;;;;;29.45;6.60;;;7.60;67.80;;;;;;2345135;57;21379;-75
2022/03/29 06:03:13;;;;;;;27.58;5.32;;;7.60;68.50;;;;;;2345279;57;21626;-75
2022/03/29 06:05:42;;;;;;;27.98;3.97;;;7.50;68.10;;;;;;2344351;57;21058;-76
2022/03/29 06:08:11;;;;;;;21.73;4.62;;;7.60;68.10;;;;;;2345397;57;21046;-75
2022/03/29 06:10:38;;;;;;;24.10;5.05;;;7.60;68.10;;;;;;2345159;57;21129;-75
2022/03/29 06:13:08;;;;;;;24.12;5.32;;;7.60;68.20;;;;;;2592346;53;21031;-75
2022/03/29 06:15:36;;;;;;;26.20;4.95;;;7.60;68.30;;;;;;2591061;53;21046;-75
2022/03/29 06:18:04;;;;;;;21.95;5.18;;;7.60;68.10;;;;;;2591972;53;21109;-75
2022/03/29 06:20:32;;;;;;;22.75;5.68;;;7.60;68.00;;;;;;2345396;57;21188;-75
2022/03/29 06:22:59;;;;;;;26.30;4.30;;;7.60;68.00;;;;;;2345183;57;21022;-75
2022/03/29 06:25:26;;;;;;;22.73;3.83;;;7.60;67.90;;;;;;2344782;57;21038;-75
2022/03/29 06:27:54;;;;;;;27.17;4.03;;;7.60;67.70;;;;;;2345012;57;21050;-75
2022/03/29 06:30:22;;;;;;;21.25;3.60;;;7.70;67.80;;;;;;2345152;57;21121;-75
2022/03/29 06:32:50;;;;;;;29.15;5.75;;;7.60;68.10;;;;;;2344542;57;21576;-75
2022/03/29 06:35:21;;;;;;;17.52;3.78;;;7.60;68.00;;;;;;2344949;57;21113;-75
2022/03/29 06:37:48;;;;;;;28.33;3.90;;;7.60;68.00;;;;;;2343986;57;21042;-75
2022/03/29 06:40:16;;;;;;;16.77;3.70;;;7.70;67.90;;;;;;2343935;57;21573;-75
2022/03/29 06:42:43;;;;;;;27.67;4.62;;;7.70;67.90;;;;;;2345182;57;21110;-75
2022/03/29 06:45:11;;;;;;;26.73;4.95;;;7.70;68.00;;;;;;2344814;57;21624;-75
2022/03/29 06:47:39;;;;;;;14.73;3.83;;;7.70;68.00;;;;;;2345054;57;21389;-75
2022/03/29 06:50:10;;;;;;;12.43;2.90;;;7.70;68.00;;;;;;2590478;53;21058;-75
2022/03/29 06:52:38;;;;;;;19.65;3.97;;;7.80;67.90;;;;;;2344927;57;21065;-76
2022/03/29 06:55:08;;;;;;;21.75;3.85;;;7.80;67.30;;;;;;2344678;57;21042;-75
2022/03/29 06:57:35;;;;;;;30.60;4.05;;;7.80;67.60;;;;;;2344566;57;21046;-76
2022/03/29 07:00:06;;;;;;;22.75;4.45;;;7.80;67.20;;;;;;2344989;57;21127;-76
2022/03/29 07:02:34;;;;;;;28.50;3.92;;;7.90;67.40;;;;;;2344810;57;21121;-77
2022/03/29 07:05:02;;;;;;;19.62;4.55;;;7.90;67.50;;;;;;2344739;57;21093;-75
2022/03/29 07:07:29;;;;;;;13.25;2.67;;;7.90;67.50;;;;;;2590836;53;21090;-75
2022/03/29 07:12:49;;;;;;;12.18;2.55;;;8.00;67.40;;;;;;2344844;57;20986;-75
2022/03/29 07:15:17;;;;;;;20.40;4.00;;;7.90;67.50;;;;;;2344611;57;21329;-75
2022/03/29 07:17:45;;;;;;;24.10;4.85;;;8.00;67.40;;;;;;2344882;57;21034;-75
2022/03/29 07:20:16;;;;;;;21.30;3.72;;;8.00;67.20;;;;;;2591417;53;21197;-75
2022/03/29 07:22:44;;;;;;;19.73;4.40;;;8.00;67.00;;;;;;2344796;57;21040;-74
2022/03/29 07:25:12;;;;;;;19.62;3.42;;;8.10;67.00;;;;;;2344257;57;21544;-74
2022/03/29 07:27:40;;;;;;;18.08;3.75;;;8.10;66.60;;;;;;2338993;57;21027;-75
2022/03/29 07:30:10;;;;;;;20.15;3.25;;;8.10;66.10;;;;;;2343212;57;21137;-74
2022/03/29 07:32:44;;;;;;;15.52;2.75;;;8.10;66.10;;;;;;2344281;57;21494;-74
2022/03/29 07:35:12;;;;;;;20.85;3.45;;;8.10;66.30;;;;;;2344021;57;21137;-74
2022/03/29 07:37:40;;;;;;;19.77;3.25;;;8.20;65.60;;;;;;2344200;57;21037;-75
2022/03/29 07:40:10;;;;;;;18.25;3.22;;;8.20;65.20;;;;;;2344655;57;21034;-74
2022/03/29 07:42:38;;;;;;;10.82;2.20;;;8.20;64.90;;;;;;2437918;52;21071;-77
2022/03/29 07:45:10;;;;;;;14.93;3.12;;;8.30;64.60;;;;;;2376939;56;21023;-77
2022/03/29 07:47:37;;;;;;;21.55;3.35;;;8.30;64.30;;;;;;2373995;56;21047;-78
2022/03/29 07:50:07;;;;;;;14.48;3.33;;;8.20;64.80;;;;;;2375854;56;21039;-77
2022/03/29 07:52:36;;;;;;;17.52;2.80;;;8.20;64.50;;;;;;2375939;56;21050;-77
2022/03/29 07:57:41;;;;;;;12.63;2.47;;;8.30;64.00;;;;;;2354318;57;22018;-77
2022/03/29 08:00:33;;;;;;;10.27;2.95;;;8.40;64.90;;;;;;2593894;53;21120;-78
2022/03/29 08:03:03;;;;;;;11.83;2.73;;;8.40;63.30;;;;;;2349741;56;21081;-78
2022/03/29 08:05:32;;;;;;;17.92;2.75;;;8.50;63.30;;;;;;2611939;52;21750;-78
2022/03/29 08:07:59;;;;;;;19.73;3.30;;;8.40;64.00;;;;;;2630785;52;21071;-78
2022/03/29 08:10:28;;;;;;;13.40;2.60;;;8.50;63.60;;;;;;2375931;56;21043;-79
2022/03/29 08:12:57;;;;;;;13.98;2.95;;;8.50;62.90;;;;;;2374077;56;21051;-77
2022/03/29 08:15:24;;;;;;;10.13;2.65;;;8.60;62.80;;;;;;2627936;52;21054;-78
2022/03/29 08:17:53;;;;;;;10.88;2.85;;;8.70;62.80;;;;;;2628642;52;21039;-77
2022/03/29 08:23:00;;;;;;;14.90;2.75;;;8.80;61.70;;;;;;2354409;57;22576;-76
2022/03/29 08:25:30;;;;;;;18.08;3.45;;;8.70;61.40;;;;;;2359737;56;21118;-78
2022/03/29 08:27:57;;;;;;;15.30;2.97;;;8.70;61.60;;;;;;2630392;52;21094;-78
2022/03/29 08:30:26;;;;;;;11.20;2.78;;;8.70;61.10;;;;;;2631034;52;21039;-77
2022/03/29 08:32:54;;;;;;;5.80;2.75;;;8.70;60.90;;;;;;2630954;52;21107;-77
2022/03/29 08:35:21;;;;;;;13.25;2.85;;;8.70;61.20;;;;;;2376693;56;21062;-77
2022/03/29 08:37:48;;;;;;;8.38;2.33;;;8.80;61.30;;;;;;2630779;52;21059;-78
2022/03/29 08:40:19;;;;;;;14.45;2.80;;;8.80;61.20;;;;;;2630433;52;21125;-78
2022/03/29 08:42:47;;;;;;;7.22;2.08;;;8.90;61.00;;;;;;2631005;52;21090;-78
2022/03/29 08:45:17;;;;;;;14.23;2.65;;;8.90;60.30;;;;;;2629424;52;21522;-77
2022/03/29 08:47:47;;;;;;;11.77;3.03;;;9.00;59.80;;;;;;2376739;56;21131;-78
2022/03/29 08:50:15;;;;;;;12.60;2.62;;;8.90;59.80;;;;;;2630880;52;21048;-78
2022/03/29 08:52:43;;;;;;;10.52;2.42;;;8.90;60.30;;;;;;2629403;52;21050;-77
2022/03/29 08:55:10;;;;;;;8.48;2.40;;;9.00;60.00;;;;;;2376732;56;21051;-78
2022/03/29 08:57:39;;;;;;;13.50;3.22;;;9.00;59.40;;;;;;2630262;52;21102;-78
2022/03/29 09:00:09;;;;;;;13.18;2.50;;;9.10;58.70;;;;;;2630630;52;21043;-78
2022/03/29 09:02:39;;;;;;;11.10;2.42;;;9.10;58.20;;;;;;2376557;56;21078;-78
2022/03/29 09:05:13;;;;;;;11.18;2.60;;;9.00;57.50;;;;;;2375155;56;21050;-78
2022/03/29 09:07:52;;;;;;;17.37;4.12;;;9.10;57.80;;;;;;2630425;52;21062;-78
2022/03/29 09:10:20;;;;;;;10.10;2.17;;;9.10;58.00;;;;;;2630169;52;21035;-78
2022/03/29 09:12:48;;;;;;;6.00;2.17;;;9.20;58.30;;;;;;2629526;52;21046;-77
2022/03/29 09:15:16;;;;;;;15.15;2.20;;;9.20;58.10;;;;;;2628744;52;21074;-76
2022/03/29 09:17:46;;;;;;;11.80;3.00;;;9.30;58.00;;;;;;2374995;56;21039;-77
2022/03/29 09:20:20;;;;;;;10.43;2.62;;;9.30;56.90;;;;;;2374575;56;21059;-77
2022/03/29 09:22:50;;;;;;;7.90;2.10;;;9.30;56.40;;;;;;2375887;56;21051;-76
2022/03/29 09:25:20;;;;;;;7.28;2.20;;;9.30;56.70;;;;;;2628794;52;21053;-76
2022/03/29 09:27:58;;;;;;;8.70;2.42;;;9.30;57.20;;;;;;2629201;52;21149;-77
2022/03/29 09:30:28;;;;;;;7.62;2.12;;;9.40;57.10;;;;;;2375230;56;21094;-76
2022/03/29 09:33:00;;;;;;;10.30;2.20;;;9.40;56.30;;;;;;2374596;56;21046;-77
2022/03/29 09:35:30;;;;;;;7.80;2.25;;;9.50;57.10;;;;;;2372197;56;21590;-76
2022/03/29 09:37:58;;;;;;;5.25;2.22;;;9.50;56.50;;;;;;2626842;52;21122;-76
2022/03/29 09:40:38;;;;;;;13.75;2.62;;;9.60;56.20;;;;;;2373143;56;21054;-78
2022/03/29 09:43:08;;;;;;;9.70;2.30;;;9.70;56.10;;;;;;2626634;52;21039;-77
2022/03/29 09:45:44;;;;;;;16.42;2.83;;;9.70;55.80;;;;;;2373228;56;21046;-77
2022/03/29 09:51:19;;;;;;;10.48;2.47;;;9.90;55.90;;;;;;2354960;57;22081;-76
2022/03/29 09:53:51;;;;;;;14.13;3.05;;;9.90;55.60;;;;;;2596041;53;22454;-78
2022/03/29 09:56:24;;;;;;;12.55;2.22;;;10.00;55.50;;;;;;2621135;52;21086;-78
2022/03/29 09:59:04;;;;;;;8.00;2.17;;;9.90;53.70;;;;;;2630782;52;21059;-78
2022/03/29 10:01:34;;;;;;;7.68;2.28;;;9.90;54.70;;;;;;2377202;56;21080;-77
2022/03/29 10:04:02;;;;;;;9.27;2.42;;;9.90;54.40;;;;;;2376578;56;21082;-78
2022/03/29 10:06:31;;;;;;;7.32;2.20;;;9.90;54.10;;;;;;2627457;52;21149;-75
2022/03/29 10:11:47;;;;;;;11.88;2.45;;;10.00;53.80;;;;;;2376017;56;20995;-78
2022/03/29 10:14:17;;;;;;;14.55;3.00;;;10.00;53.20;;;;;;2625183;52;21146;-77
2022/03/29 10:16:45;;;;;;;14.32;3.08;;;10.00;52.60;;;;;;2626166;52;21090;-77
2022/03/29 10:19:14;;;;;;;7.12;2.20;;;10.10;52.80;;;;;;2627416;52;21042;-77
2022/03/29 10:21:43;;;;;;;8.43;2.47;;;10.20;53.20;;;;;;2374208;56;21122;-77
2022/03/29 10:24:13;;;;;;;15.00;2.45;;;10.20;53.50;;;;;;2373954;56;21118;-77
2022/03/29 10:26:42;;;;;;;11.30;2.40;;;10.30;53.10;;;;;;2374319;56;21110;-77
2022/03/29 10:29:11;;;;;;;9.18;2.78;;;10.40;52.60;;;;;;2628222;52;21525;-77
2022/03/29 10:31:41;;;;;;;7.43;2.65;;;10.50;53.40;;;;;;2628521;52;21413;-77
2022/03/29 10:34:17;;;;;;;5.07;2.40;;;10.60;53.20;;;;;;2374788;56;21066;-77
2022/03/29 10:39:57;;;;;;;6.85;2.58;;;10.80;51.90;;;;;;2354863;57;22038;-76
2022/03/29 10:42:35;;;;;;;11.68;3.17;;;10.80;51.40;;;;;;2345664;57;21643;-76
2022/03/29 10:45:12;;;;;;;8.85;1.98;;;10.80;52.30;;;;;;2355514;56;21094;-78
2022/03/29 10:47:41;;;;;;;9.40;2.60;;;10.90;51.30;;;;;;2376144;56;21055;-76
2022/03/29 10:50:11;;;;;;;9.30;2.30;;;10.90;50.10;;;;;;2629003;52;21043;-76
2022/03/29 10:55:28;;;;;;;9.57;2.58;;;10.90;49.90;;;;;;2345341;56;38224;-76
2022/03/29 10:58:06;;;;;;;8.85;2.50;;;11.00;48.70;;;;;;2375471;56;21031;-76
2022/03/29 11:00:34;;;;;;;15.73;8.68;;;11.00;49.10;;;;;;2628560;52;21073;-77
2022/03/29 11:03:13;;;;;;;9.60;3.33;;;11.10;49.70;;;;;;2374690;56;21042;-76
2022/03/29 11:06:06;;;;;;;14.05;5.43;;;11.20;49.70;;;;;;2627389;52;21162;-77
2022/03/29 11:08:35;;;;;;;9.02;4.12;;;11.30;49.90;;;;;;2374301;56;21045;-77
2022/03/29 11:11:03;;;;;;;7.95;2.60;;;11.30;49.30;;;;;;2373511;56;21288;-76
2022/03/29 11:13:32;;;;;;;6.07;2.67;;;11.40;48.90;;;;;;2373996;56;21295;-76
2022/03/29 11:16:02;;;;;;;14.82;3.67;;;11.50;48.80;;;;;;2373088;56;21106;-77
2022/03/29 11:18:40;;;;;;;9.75;3.45;;;11.60;49.70;;;;;;2627399;52;21130;-76
2022/03/29 11:21:08;;;;;;;11.82;3.47;;;11.60;50.00;;;;;;2374130;56;21046;-77
2022/03/29 11:23:36;;;;;;;11.00;3.08;;;11.80;50.30;;;;;;2628380;52;21066;-77
2022/03/29 11:26:10;;;;;;;14.43;2.47;;;11.90;50.40;;;;;;2371592;56;21046;-77
2022/03/29 11:28:45;;;;;;;6.80;2.28;;;12.00;50.20;;;;;;2626947;52;21639;-77
2022/03/29 11:31:12;;;;;;;7.70;2.08;;;12.10;49.60;;;;;;2627210;52;21126;-77
2022/03/29 11:36:22;;;;;;;7.78;2.03;;;12.20;47.70;;;;;;2513214;54;22199;-78
2022/03/29 11:38:50;;;;;;;5.80;2.15;;;12.30;47.90;;;;;;2292624;58;21087;-78
2022/03/29 11:41:25;;;;;;;7.53;2.28;;;12.30;47.10;;;;;;2292804;58;21051;-78
2022/03/29 11:43:58;;;;;;;13.48;2.72;;;12.30;47.50;;;;;;2292383;58;21055;-78
2022/03/29 11:46:42;;;;;;;7.68;2.12;;;12.30;47.40;;;;;;2292854;58;21083;-78
2022/03/29 11:49:10;;;;;;;8.32;2.70;;;12.20;47.40;;;;;;2526827;55;21102;-75
2022/03/29 11:51:37;;;;;;;7.75;2.15;;;12.20;46.50;;;;;;2290442;58;21063;-75
2022/03/29 11:54:04;;;;;;;7.43;2.05;;;12.20;46.10;;;;;;2290121;58;21059;-75
2022/03/29 11:56:37;;;;;;;7.30;1.92;;;12.30;47.10;;;;;;2525387;54;21059;-75
2022/03/29 11:59:13;;;;;;;9.43;2.50;;;12.40;47.50;;;;;;2290785;58;21106;-75
2022/03/29 12:01:41;;;;;;;7.75;2.45;;;12.50;47.60;;;;;;2291028;58;21047;-75
2022/03/29 12:04:11;;;;;;;5.25;2.00;;;12.50;46.70;;;;;;2290638;58;21055;-75
2022/03/29 12:06:48;;;;;;;7.37;2.12;;;12.50;46.90;;;;;;2290311;58;21173;-75
2022/03/29 12:09:22;;;;;;;7.32;2.20;;;12.50;43.90;;;;;;2290229;58;21127;-75
2022/03/29 12:11:48;;;;;;;;;;;12.50;44.30;;;;;;2293727;58;21047;-75
2022/03/29 12:14:18;;;;;;;9.70;2.33;;;12.50;44.60;;;;;;2526341;55;20052;-75
2022/03/29 12:16:47;;;;;;;5.12;1.80;;;12.40;44.00;;;;;;2290800;58;21123;-75
2022/03/29 12:19:16;;;;;;;6.80;1.87;;;12.50;45.30;;;;;;2291266;58;21102;-76
2022/03/29 12:21:51;;;;;;;8.02;2.70;;;12.40;45.50;;;;;;2526141;55;21656;-75
2022/03/29 12:24:19;;;;;;;7.20;2.30;;;12.50;45.50;;;;;;2290692;58;21610;-77
2022/03/29 12:26:50;;;;;;;9.48;1.98;;;12.60;45.80;;;;;;2290726;58;21055;-77
2022/03/29 12:29:19;;;;;;;6.25;1.73;;;12.60;45.00;;;;;;2290059;58;21115;-74
2022/03/29 12:31:48;;;;;;;11.02;2.25;;;12.50;45.30;;;;;;2290798;58;21554;-75
2022/03/29 12:34:21;;;;;;;10.18;3.35;;;12.40;45.10;;;;;;2291044;58;21118;-75
2022/03/29 12:36:52;;;;;;;9.20;2.05;;;12.40;46.00;;;;;;2290769;58;21055;-75
2022/03/29 12:39:20;;;;;;;5.43;1.92;;;12.50;46.20;;;;;;2525886;55;21059;-75
2022/03/29 12:41:52;;;;;;;5.80;1.80;;;12.60;46.00;;;;;;2290944;58;21146;-75
2022/03/29 12:44:31;;;;;;;6.12;1.73;;;12.60;45.50;;;;;;2290931;58;21181;-75
2022/03/29 12:46:59;;;;;;;6.93;1.87;;;12.60;46.20;;;;;;2290054;58;21570;-75
2022/03/29 12:49:27;;;;;;;8.38;2.22;;;12.60;46.00;;;;;;2288948;58;21653;-75
2022/03/29 12:51:56;;;;;;;9.32;2.00;;;12.60;47.20;;;;;;2290392;58;21138;-75
2022/03/29 12:54:35;;;;;;;8.18;2.30;;;12.70;47.40;;;;;;2290154;58;21111;-75
2022/03/29 12:57:05;;;;;;;6.62;1.80;;;12.70;46.90;;;;;;2289093;58;21079;-74
2022/03/29 12:59:36;;;;;;;16.33;3.53;;;12.70;45.80;;;;;;2290354;58;21110;-75
2022/03/29 13:02:16;;;;;;;7.30;1.90;;;12.70;45.80;;;;;;2290105;58;21166;-75
2022/03/29 13:04:49;;;;;;;11.55;2.08;;;12.70;45.90;;;;;;2289858;58;21118;-74
2022/03/29 13:07:44;;;;;;;9.70;2.60;;;12.70;46.10;;;;;;2289800;58;21119;-76
2022/03/29 13:10:15;;;;;;;8.95;2.25;;;12.80;46.70;;;;;;2290200;58;21130;-76
2022/03/29 13:12:54;;;;;;;11.95;2.35;;;12.90;45.90;;;;;;2290355;58;21040;-76
2022/03/29 13:15:41;;;;;;;6.85;2.00;;;13.10;46.60;;;;;;2524217;54;21079;-75
2022/03/29 13:18:20;;;;;;;5.85;1.67;;;13.10;46.10;;;;;;2523097;55;21059;-75
2022/03/29 13:20:48;;;;;;;7.95;1.58;;;13.20;46.20;;;;;;2289986;58;21055;-76
2022/03/29 13:23:29;;;;;;;6.05;2.12;;;13.30;47.10;;;;;;2287773;58;21071;-76
2022/03/29 13:25:56;;;;;;;7.10;1.52;;;13.30;46.30;;;;;;2289623;58;21079;-75
2022/03/29 13:28:24;;;;;;;10.85;1.80;;;13.40;45.60;;;;;;2289871;58;21071;-76
2022/03/29 13:30:51;;;;;;;5.15;1.77;;;13.50;45.30;;;;;;2290043;58;21071;-76
2022/03/29 13:33:18;;;;;;;10.13;2.08;;;13.50;44.40;;;;;;2290198;58;21050;-77
2022/03/29 13:35:46;;;;;;;3.58;1.30;;;13.50;44.10;;;;;;2289066;58;21202;-75
2022/03/29 13:38:14;;;;;;;6.62;1.42;;;13.50;43.40;;;;;;2289736;58;21067;-75
2022/03/29 13:40:41;;;;;;;8.63;2.08;;;13.50;44.30;;;;;;2289130;58;21210;-76
2022/03/29 13:43:08;;;;;;;5.22;1.60;;;13.50;43.80;;;;;;2507914;53;21128;-76
2022/03/29 13:45:36;;;;;;;6.07;1.60;;;13.60;44.50;;;;;;2264129;59;21598;-76
2022/03/29 13:48:04;;;;;;;6.65;2.12;;;13.60;43.70;;;;;;2264236;59;21054;-76
2022/03/29 13:50:33;;;;;;;10.82;2.67;;;13.60;44.20;;;;;;2264265;59;21066;-77
2022/03/29 13:53:01;;;;;;;9.20;2.08;;;13.50;43.90;;;;;;2264118;59;21595;-76